Time;durP1;ratioP1;P1;durP2;ratioP2;P2;SDS_P1;SDS_P2;PMS_P1;PMS_P2;Temp;Humidity;BMP_temperature;BMP_pressure;BME280_temperature;BME280_humidity;BME280_pressure;Samples;Min_cycle;Max_cycle;Signal;HPM_P1;HPM_P2
2023/09/16 00:00:33;;;;;;;0.13;0.13;;;;;;;12.70;75.81;97666.72;4955610;28;20060;-70
2023/09/16 00:03:01;;;;;;;0.30;0.30;;;;;;;12.84;75.05;97666.53;4944271;28;20051;-70
2023/09/16 00:05:31;;;;;;;0.13;0.13;;;;;;;12.73;75.29;97669.81;4946919;29;20054;-70
2023/09/16 00:07:59;;;;;;;0.30;0.30;;;;;;;12.72;75.44;97673.53;4951443;29;20089;-70
2023/09/16 00:10:26;;;;;;;0.22;0.22;;;;;;;12.64;75.55;97676.41;4952677;29;20042;-70
2023/09/16 00:12:54;;;;;;;0.25;0.25;;;;;;;12.36;76.42;97673.91;4948356;29;20050;-70
2023/09/16 00:15:22;;;;;;;0.20;0.20;;;;;;;12.06;77.55;97669.94;4951220;28;20063;-70
2023/09/16 00:17:50;;;;;;;0.13;0.13;;;;;;;11.92;78.43;97671.75;4948464;28;20063;-70
2023/09/16 00:20:18;;;;;;;0.05;0.05;;;;;;;12.13;77.59;97665.44;4950623;29;20043;-70
2023/09/16 00:22:48;;;;;;;0.30;0.30;;;;;;;12.35;76.69;97666.09;4949022;29;20044;-70
2023/09/16 00:25:15;;;;;;;0.22;0.22;;;;;;;12.27;76.96;97666.28;4954163;28;20071;-70
2023/09/16 00:27:43;;;;;;;0.50;0.50;;;;;;;12.22;77.15;97660.72;4951949;28;20043;-70
2023/09/16 00:30:12;;;;;;;0.20;0.20;;;;;;;12.26;77.02;97661.94;4950579;29;20495;-70
2023/09/16 00:32:39;;;;;;;0.30;0.30;;;;;;;12.17;77.46;97660.50;4950271;28;20050;-70
2023/09/16 00:35:08;;;;;;;0.13;0.13;;;;;;;12.16;77.47;97654.31;4954729;28;20054;-70
2023/09/16 00:37:36;;;;;;;0.25;0.25;;;;;;;11.99;78.24;97639.66;4953091;28;20043;-70
2023/09/16 00:40:06;;;;;;;0.20;0.20;;;;;;;12.13;77.65;97647.53;4950142;29;20423;-70
2023/09/16 00:42:37;;;;;;;0.25;0.25;;;;;;;12.13;77.64;97646.72;4949436;29;20098;-70
2023/09/16 00:45:10;;;;;;;0.20;0.20;;;;;;;12.19;77.09;97645.06;4950590;29;20069;-70
2023/09/16 00:47:39;;;;;;;0.08;0.08;;;;;;;12.09;77.20;97629.41;4944435;29;20051;-70
2023/09/16 00:50:09;;;;;;;0.22;0.22;;;;;;;12.04;77.55;97631.88;4940704;29;20047;-70
2023/09/16 00:52:38;;;;;;;0.35;0.35;;;;;;;12.07;77.55;97632.28;4933612;29;20051;-70
2023/09/16 00:55:08;;;;;;;0.22;0.22;;;;;;;12.08;77.56;97628.56;4953249;28;20055;-70
2023/09/16 00:57:37;;;;;;;0.10;0.10;;;;;;;12.07;77.20;97631.44;4953687;29;20595;-70
2023/09/16 01:00:08;;;;;;;0.32;0.32;;;;;;;11.92;77.70;97628.97;4936848;29;20063;-70
2023/09/16 01:02:36;;;;;;;0.22;0.22;;;;;;;12.03;77.21;97627.56;4949780;29;20098;-70
2023/09/16 01:05:08;;;;;;;0.15;0.15;;;;;;;12.20;76.41;97622.63;4946607;28;20035;-70
2023/09/16 01:07:37;;;;;;;0.10;0.10;;;;;;;12.19;76.01;97626.31;4948331;29;20403;-70
2023/09/16 01:10:05;;;;;;;0.22;0.22;;;;;;;12.14;76.07;97621.59;4941271;29;20046;-71
2023/09/16 01:12:34;;;;;;;0.20;0.20;;;;;;;12.10;76.09;97620.34;4932835;29;20530;-71
2023/09/16 01:15:03;;;;;;;0.20;0.20;;;;;;;12.22;75.71;97612.53;4955354;28;20055;-71
2023/09/16 01:17:34;;;;;;;0.32;0.32;;;;;;;12.06;76.00;97611.06;4934934;29;20052;-70
2023/09/16 01:20:06;;;;;;;0.03;0.03;;;;;;;11.97;76.09;97621.16;4944114;29;20558;-71
2023/09/16 01:22:34;;;;;;;;;;;;;;;12.01;76.01;97618.91;4956092;28;20114;-71
2023/09/16 01:25:06;;;;;;;0.28;0.28;;;;;;;11.99;76.19;97619.09;4944932;28;19957;-71
2023/09/16 01:27:34;;;;;;;0.22;0.22;;;;;;;11.91;76.04;97616.63;4949196;28;20043;-71
2023/09/16 01:30:02;;;;;;;0.22;0.22;;;;;;;11.83;76.33;97619.47;4953205;29;20047;-71
2023/09/16 01:32:34;;;;;;;0.22;0.22;;;;;;;11.81;76.57;97610.84;4950355;29;20130;-71
2023/09/16 01:35:04;;;;;;;0.32;0.32;;;;;;;11.83;76.23;97603.44;4936280;28;20086;-70
2023/09/16 01:37:32;;;;;;;0.10;0.10;;;;;;;11.76;76.54;97608.75;4954236;28;20071;-70
2023/09/16 01:40:00;;;;;;;0.13;0.13;;;;;;;11.76;76.62;97602.56;4956672;28;20503;-70
2023/09/16 01:42:30;;;;;;;0.22;0.22;;;;;;;11.78;76.57;97611.22;4951692;29;20045;-70
2023/09/16 01:45:01;;;;;;;0.13;0.13;;;;;;;11.59;77.08;97607.44;4952663;28;21016;-70
2023/09/16 01:47:30;;;;;;;0.13;0.13;;;;;;;11.46;77.84;97594.03;4935060;29;20567;-70
2023/09/16 01:49:57;;;;;;;0.13;0.13;;;;;;;11.65;77.24;97595.09;4954026;28;20035;-70
2023/09/16 01:52:25;;;;;;;0.22;0.22;;;;;;;11.79;76.45;97591.50;4932577;29;20043;-70
2023/09/16 01:54:53;;;;;;;0.20;0.20;;;;;;;11.80;76.30;97594.97;4946855;28;20039;-70
2023/09/16 01:57:21;;;;;;;0.20;0.20;;;;;;;11.81;76.23;97600.13;4935779;29;20054;-70
2023/09/16 01:59:50;;;;;;;0.13;0.13;;;;;;;11.83;75.83;97611.47;4932620;29;20050;-70
2023/09/16 02:02:18;;;;;;;0.22;0.22;;;;;;;11.74;75.98;97610.75;4937125;29;20051;-70
2023/09/16 02:04:46;;;;;;;0.22;0.22;;;;;;;11.42;76.21;97619.50;4941955;29;20479;-70
2023/09/16 02:07:14;;;;;;;0.22;0.22;;;;;;;11.34;76.97;97607.13;4954132;29;20066;-70
2023/09/16 02:09:43;;;;;;;0.22;0.22;;;;;;;11.26;77.47;97614.50;4949705;29;20063;-70
2023/09/16 02:12:12;;;;;;;0.20;0.20;;;;;;;11.27;77.28;97608.13;4937110;29;20051;-70
2023/09/16 02:14:40;;;;;;;0.22;0.22;;;;;;;11.21;77.59;97612.41;4931969;29;20127;-70
2023/09/16 02:17:09;;;;;;;0.20;0.20;;;;;;;11.37;77.05;97604.06;4944376;28;20071;-70
2023/09/16 02:19:37;;;;;;;0.15;0.15;;;;;;;11.34;77.28;97606.31;4933152;29;20120;-71
2023/09/16 02:22:08;;;;;;;0.10;0.10;;;;;;;11.27;77.19;97610.81;4930977;29;20051;-70
2023/09/16 02:24:36;;;;;;;0.13;0.13;;;;;;;11.32;76.82;97611.84;4950917;29;20054;-70
2023/09/16 02:27:04;;;;;;;0.40;0.22;;;;;;;11.17;77.14;97608.50;4933955;29;20054;-70
2023/09/16 02:29:33;;;;;;;0.20;0.20;;;;;;;11.12;77.52;97599.41;4946866;29;20198;-70
2023/09/16 02:32:01;;;;;;;0.22;0.22;;;;;;;11.10;77.76;97601.47;4945224;29;20126;-70
2023/09/16 02:34:31;;;;;;;0.20;0.20;;;;;;;11.05;77.90;97604.72;4957678;28;20514;-70
2023/09/16 02:36:59;;;;;;;0.08;0.08;;;;;;;11.02;77.74;97599.78;4953493;29;20082;-70
2023/09/16 02:39:29;;;;;;;0.25;0.25;;;;;;;10.92;78.07;97607.31;4936355;29;20043;-71
2023/09/16 02:41:57;;;;;;;0.20;0.20;;;;;;;10.86;78.37;97608.13;4952461;29;20526;-70
2023/09/16 02:44:24;;;;;;;0.22;0.22;;;;;;;10.82;78.29;97602.34;4933780;29;20139;-71
2023/09/16 02:46:53;;;;;;;0.17;0.17;;;;;;;10.89;78.46;97610.41;4936007;29;20134;-70
2023/09/16 02:49:21;;;;;;;0.22;0.22;;;;;;;10.94;78.05;97605.28;4931032;29;20530;-70
2023/09/16 02:51:51;;;;;;;0.30;0.30;;;;;;;10.93;77.98;97606.28;4935493;29;20047;-70
2023/09/16 02:54:18;;;;;;;0.13;0.13;;;;;;;11.02;77.86;97605.13;4929821;29;20050;-70
2023/09/16 02:56:46;;;;;;;0.30;0.30;;;;;;;11.01;77.71;97601.63;4950918;29;20047;-70
2023/09/16 02:59:13;;;;;;;0.32;0.32;;;;;;;10.92;77.75;97610.81;4929474;29;20047;-70
2023/09/16 03:01:42;;;;;;;0.28;0.28;;;;;;;10.95;77.74;97613.09;4949267;29;20442;-70
2023/09/16 03:04:10;;;;;;;0.25;0.25;;;;;;;11.13;77.19;97612.56;4935492;29;20055;-70
2023/09/16 03:06:38;;;;;;;0.22;0.22;;;;;;;11.10;77.00;97617.50;4933616;29;20529;-71
2023/09/16 03:09:08;;;;;;;0.22;0.22;;;;;;;11.07;77.15;97618.72;4949054;29;20062;-72
2023/09/16 03:11:36;;;;;;;0.22;0.22;;;;;;;10.87;77.46;97625.78;4933583;29;20054;-70
2023/09/16 03:14:04;;;;;;;0.20;0.20;;;;;;;10.84;77.94;97624.31;4948969;28;20073;-70
2023/09/16 03:16:32;;;;;;;0.10;0.10;;;;;;;10.95;77.70;97620.28;4934074;29;20412;-71
2023/09/16 03:19:00;;;;;;;0.20;0.20;;;;;;;10.76;78.08;97629.81;4933142;29;20054;-71
2023/09/16 03:21:28;;;;;;;0.13;0.13;;;;;;;10.79;78.43;97618.75;4932262;29;20047;-71
2023/09/16 03:24:05;;;;;;;0.13;0.13;;;;;;;10.82;78.15;97622.88;4946746;29;20051;-71
2023/09/16 03:26:35;;;;;;;0.22;0.22;;;;;;;10.88;77.90;97616.75;4930021;29;20044;-71
2023/09/16 03:29:03;;;;;;;0.03;0.03;;;;;;;10.81;77.71;97621.22;4948390;29;20456;-71
2023/09/16 03:31:31;;;;;;;0.22;0.22;;;;;;;10.71;77.75;97620.72;4950288;29;20122;-71
2023/09/16 03:34:06;;;;;;;0.10;0.10;;;;;;;10.62;78.11;97620.06;4927337;29;20141;-71
2023/09/16 03:36:34;;;;;;;0.30;0.30;;;;;;;10.77;77.99;97617.31;4944027;29;20047;-70
2023/09/16 03:39:03;;;;;;;0.15;0.15;;;;;;;10.74;77.94;97615.00;4953063;28;20118;-70
2023/09/16 03:41:30;;;;;;;0.40;0.40;;;;;;;10.69;78.05;97612.13;4933105;29;20044;-71
2023/09/16 03:44:02;;;;;;;0.13;0.13;;;;;;;10.79;77.95;97613.41;4943295;29;20071;-70
2023/09/16 03:46:31;;;;;;;0.15;0.15;;;;;;;10.74;78.00;97610.50;4932552;29;20047;-70
2023/09/16 03:49:02;;;;;;;0.20;0.20;;;;;;;10.71;77.82;97607.38;4944349;29;20071;-75
2023/09/16 03:51:30;;;;;;;0.10;0.10;;;;;;;10.84;77.43;97607.47;4930971;29;20130;-70
2023/09/16 03:54:00;;;;;;;0.20;0.20;;;;;;;10.81;77.23;97607.88;4930453;29;20058;-70
2023/09/16 03:56:28;;;;;;;0.17;0.17;;;;;;;10.76;77.45;97603.13;4945443;29;20402;-70
2023/09/16 03:58:56;;;;;;;0.20;0.20;;;;;;;10.82;77.13;97598.84;4945191;29;20051;-70
2023/09/16 04:01:27;;;;;;;0.13;0.13;;;;;;;10.65;77.53;97599.16;4933784;29;20035;-70
2023/09/16 04:03:55;;;;;;;0.25;0.25;;;;;;;10.63;77.49;97590.50;4944417;28;20042;-70
2023/09/16 04:06:24;;;;;;;0.13;0.13;;;;;;;10.76;77.22;97592.44;4932116;29;20048;-70
2023/09/16 04:08:52;;;;;;;0.13;0.13;;;;;;;10.65;77.44;97593.81;4946576;29;20555;-71
2023/09/16 04:11:19;;;;;;;0.32;0.32;;;;;;;10.75;76.97;97593.47;4950221;29;20036;-71
2023/09/16 04:13:47;;;;;;;0.20;0.20;;;;;;;10.69;77.29;97601.44;4935999;29;20126;-71
2023/09/16 04:16:15;;;;;;;0.15;0.15;;;;;;;10.59;76.95;97604.44;4935314;29;20043;-70
2023/09/16 04:18:44;;;;;;;0.22;0.22;;;;;;;10.49;77.36;97598.59;4950208;29;20054;-71
2023/09/16 04:21:12;;;;;;;0.10;0.10;;;;;;;10.54;77.22;97596.19;4945100;29;20039;-72
2023/09/16 04:23:40;;;;;;;0.15;0.15;;;;;;;10.57;77.73;97593.16;4953102;28;20047;-71
2023/09/16 04:26:13;;;;;;;0.20;0.20;;;;;;;10.51;77.64;97596.56;4950168;28;20043;-72
2023/09/16 04:28:42;;;;;;;;;;;;;;;10.49;77.54;97590.59;4942477;29;20146;-71
2023/09/16 04:31:09;;;;;;;0.13;0.13;;;;;;;10.49;77.87;97591.41;4953602;28;19932;-71
2023/09/16 04:33:40;;;;;;;0.25;0.25;;;;;;;10.47;78.06;97588.16;4929643;29;20133;-71
2023/09/16 04:36:10;;;;;;;0.30;0.30;;;;;;;10.53;77.50;97583.88;4931624;29;20511;-71
2023/09/16 04:38:39;;;;;;;0.13;0.13;;;;;;;10.62;76.98;97590.69;4933319;29;20043;-71
2023/09/16 04:41:06;;;;;;;0.22;0.22;;;;;;;10.68;76.64;97595.28;4948760;29;20039;-71
2023/09/16 04:43:34;;;;;;;0.30;0.30;;;;;;;10.61;76.71;97595.22;4947616;28;20071;-71
2023/09/16 04:46:04;;;;;;;0.38;0.38;;;;;;;10.63;76.51;97593.19;4947297;29;20047;-70
2023/09/16 04:48:37;;;;;;;0.20;0.20;;;;;;;10.58;76.42;97595.63;4929782;29;20316;-70
2023/09/16 04:51:05;;;;;;;0.35;0.35;;;;;;;10.53;76.79;97590.03;4931547;29;20071;-71
2023/09/16 04:53:35;;;;;;;0.22;0.22;;;;;;;10.46;76.90;97599.84;4937888;29;20071;-71
2023/09/16 04:56:05;;;;;;;0.30;0.30;;;;;;;10.27;77.63;97595.16;4946367;29;20058;-71
2023/09/16 04:58:36;;;;;;;0.20;0.20;;;;;;;10.21;78.29;97594.09;4931664;29;20064;-70
2023/09/16 05:01:05;;;;;;;0.13;0.13;;;;;;;10.18;77.98;97596.28;4951376;29;20126;-70
2023/09/16 05:03:33;;;;;;;0.32;0.32;;;;;;;10.27;78.01;97592.50;4930425;29;20135;-70
2023/09/16 05:06:02;;;;;;;0.13;0.13;;;;;;;10.49;77.25;97594.09;4953304;29;20078;-70
2023/09/16 05:08:33;;;;;;;0.22;0.22;;;;;;;10.59;76.94;97596.41;4930366;29;20090;-70
2023/09/16 05:11:03;;;;;;;0.10;0.10;;;;;;;10.52;77.41;97600.88;4953006;29;20080;-71
2023/09/16 05:13:41;;;;;;;0.15;0.15;;;;;;;10.47;77.72;97598.81;4934868;29;20110;-71
2023/09/16 05:16:08;;;;;;;0.30;0.30;;;;;;;10.61;77.25;97594.38;4936789;29;20411;-70
2023/09/16 05:18:36;;;;;;;0.22;0.22;;;;;;;10.54;77.72;97593.53;4936849;29;20044;-71
2023/09/16 05:21:04;;;;;;;0.63;0.63;;;;;;;10.50;77.98;97587.75;4936156;29;20043;-71
2023/09/16 05:23:33;;;;;;;0.22;0.22;;;;;;;10.59;77.91;97573.22;4928305;29;20070;-72
2023/09/16 05:26:05;;;;;;;0.15;0.15;;;;;;;10.60;78.02;97582.88;4936038;29;20072;-71
2023/09/16 05:28:36;;;;;;;0.22;0.22;;;;;;;10.69;77.88;97583.59;4932789;29;20530;-71
2023/09/16 05:31:05;;;;;;;0.30;0.30;;;;;;;10.70;77.68;97577.19;4936262;29;20058;-71
2023/09/16 05:33:36;;;;;;;0.13;0.13;;;;;;;10.68;77.89;97578.44;4936928;29;20530;-71
2023/09/16 05:36:04;;;;;;;0.28;0.28;;;;;;;10.68;77.83;97581.94;4950449;29;20047;-71
2023/09/16 05:38:33;;;;;;;0.22;0.22;;;;;;;10.60;77.90;97576.72;4935470;29;20094;-71
2023/09/16 05:41:01;;;;;;;0.25;0.25;;;;;;;10.66;78.06;97586.63;4952925;29;20165;-71
2023/09/16 05:43:30;;;;;;;0.25;0.25;;;;;;;10.68;78.30;97586.44;4943017;29;20038;-71
2023/09/16 05:45:58;;;;;;;0.30;0.30;;;;;;;10.73;78.04;97592.81;4946605;29;20043;-71
2023/09/16 05:48:27;;;;;;;0.13;0.13;;;;;;;10.86;78.40;97592.09;4934186;29;20050;-71
2023/09/16 05:50:57;;;;;;;0.22;0.22;;;;;;;11.00;77.72;97591.16;4944596;29;20074;-71
2023/09/16 05:53:27;;;;;;;0.13;0.13;;;;;;;10.97;77.89;97592.38;4934688;29;20558;-71
2023/09/16 05:56:02;;;;;;;0.15;0.15;;;;;;;10.98;78.04;97590.53;4945029;28;20048;-71
2023/09/16 05:58:31;;;;;;;0.22;0.22;;;;;;;11.12;77.63;97588.72;4932601;29;20047;-71
2023/09/16 06:00:59;;;;;;;0.32;0.32;;;;;;;11.15;77.93;97602.53;4930385;29;20090;-71
2023/09/16 06:03:28;;;;;;;0.30;0.30;;;;;;;11.27;77.94;97589.44;4933895;29;20071;-71
2023/09/16 06:05:59;;;;;;;0.13;0.13;;;;;;;11.43;77.98;97586.41;4943642;29;20412;-70
2023/09/16 06:08:27;;;;;;;0.13;0.13;;;;;;;11.46;79.02;97586.00;4927997;29;20099;-71
2023/09/16 06:10:56;;;;;;;0.22;0.22;;;;;;;11.62;79.44;97582.16;4931125;29;20078;-70
2023/09/16 06:13:24;;;;;;;0.20;0.20;;;;;;;11.78;80.25;97576.47;4934189;29;20039;-70
2023/09/16 06:15:55;;;;;;;0.13;0.13;;;;;;;11.93;80.30;97579.78;4952881;29;20046;-70
2023/09/16 06:18:25;;;;;;;0.15;0.15;;;;;;;12.08;80.37;97568.91;4935236;29;20040;-70
2023/09/16 06:20:53;;;;;;;0.20;0.20;;;;;;;12.25;80.74;97569.34;4934959;29;20106;-71
2023/09/16 06:23:21;;;;;;;0.22;0.22;;;;;;;12.42;80.02;97573.22;4938093;28;20066;-71
2023/09/16 06:25:50;;;;;;;0.20;0.20;;;;;;;12.50;79.34;97573.84;4952495;28;20047;-71
2023/09/16 06:28:18;;;;;;;0.13;0.13;;;;;;;12.61;79.76;97579.59;4935311;29;20049;-71
2023/09/16 06:30:46;;;;;;;0.20;0.20;;;;;;;12.73;80.25;97575.25;4931390;29;20043;-71
2023/09/16 06:33:16;;;;;;;0.25;0.25;;;;;;;12.85;79.75;97576.28;4942549;28;20043;-70
2023/09/16 06:35:44;;;;;;;0.22;0.22;;;;;;;12.95;80.09;97576.66;4938551;28;20124;-70
2023/09/16 06:38:12;;;;;;;0.20;0.20;;;;;;;13.06;79.97;97578.69;4932978;29;20090;-70
2023/09/16 06:40:39;;;;;;;0.22;0.22;;;;;;;13.18;80.80;97577.00;4949780;29;20043;-71
2023/09/16 06:43:08;;;;;;;0.20;0.20;;;;;;;13.29;79.72;97574.72;4932668;29;20039;-71
2023/09/16 06:45:39;;;;;;;0.13;0.13;;;;;;;13.44;80.22;97565.38;4948547;29;20139;-71
2023/09/16 06:48:08;;;;;;;0.15;0.15;;;;;;;13.58;80.94;97560.78;4949721;29;20061;-71
2023/09/16 06:50:38;;;;;;;0.13;0.13;;;;;;;13.75;80.90;97558.41;4946935;29;20049;-71
2023/09/16 06:53:05;;;;;;;0.28;0.28;;;;;;;13.86;80.51;97563.09;4948818;28;20067;-71
2023/09/16 06:55:33;;;;;;;0.22;0.22;;;;;;;14.01;80.29;97558.25;4951458;28;20128;-71
2023/09/16 06:58:04;;;;;;;0.25;0.25;;;;;;;14.13;80.04;97561.84;4949789;29;20039;-71
2023/09/16 07:00:32;;;;;;;0.20;0.20;;;;;;;14.20;80.12;97553.75;4948244;29;20050;-71
2023/09/16 07:03:00;;;;;;;0.20;0.20;;;;;;;14.29;79.52;97552.44;4949271;28;20121;-71
2023/09/16 07:05:28;;;;;;;0.15;0.15;;;;;;;14.38;79.27;97544.94;4945749;29;20154;-70
2023/09/16 07:07:58;;;;;;;0.13;0.13;;;;;;;14.48;79.25;97548.81;4950072;29;20098;-71
2023/09/16 07:10:26;;;;;;;0.22;0.22;;;;;;;14.62;79.56;97549.50;4951036;29;20071;-71
2023/09/16 07:12:54;;;;;;;0.10;0.10;;;;;;;14.72;79.24;97554.38;4946983;28;20043;-71
2023/09/16 07:15:22;;;;;;;0.13;0.13;;;;;;;14.80;79.03;97552.22;4951602;29;20043;-71
2023/09/16 07:17:49;;;;;;;0.30;0.30;;;;;;;14.93;79.03;97549.41;4947053;29;20039;-71
2023/09/16 07:20:17;;;;;;;0.20;0.20;;;;;;;15.05;78.25;97550.28;4940045;28;20054;-71
2023/09/16 07:22:45;;;;;;;0.22;0.22;;;;;;;15.12;78.30;97544.84;4947302;28;20046;-71
2023/09/16 07:25:14;;;;;;;0.13;0.13;;;;;;;15.21;77.80;97546.19;4950815;28;20047;-71
2023/09/16 07:27:42;;;;;;;0.13;0.13;;;;;;;15.30;77.75;97544.81;4945453;29;20052;-71
2023/09/16 07:30:10;;;;;;;0.30;0.30;;;;;;;15.42;77.32;97540.31;4948923;28;20043;-71
2023/09/16 07:32:38;;;;;;;0.13;0.13;;;;;;;15.50;77.38;97538.38;4945924;29;20044;-72
2023/09/16 07:35:06;;;;;;;0.10;0.10;;;;;;;15.66;77.11;97535.09;4957055;28;20514;-71
2023/09/16 07:37:34;;;;;;;0.20;0.20;;;;;;;15.75;76.26;97531.84;4948680;28;20050;-71
2023/09/16 07:40:01;;;;;;;0.10;0.10;;;;;;;15.90;75.80;97533.28;4949498;29;20498;-71
2023/09/16 07:42:32;;;;;;;0.13;0.13;;;;;;;16.02;75.51;97534.13;4946948;29;21522;-70
2023/09/16 07:44:59;;;;;;;0.30;0.30;;;;;;;16.09;75.22;97530.28;4948845;28;20070;-71
2023/09/16 07:47:27;;;;;;;0.20;0.20;;;;;;;16.17;75.25;97539.09;4942018;29;20043;-71
2023/09/16 07:49:55;;;;;;;0.15;0.15;;;;;;;16.36;74.75;97552.25;4951375;28;20063;-71
2023/09/16 07:52:22;;;;;;;0.13;0.13;;;;;;;16.43;74.50;97544.84;4948851;29;20050;-71
2023/09/16 07:54:50;;;;;;;0.25;0.25;;;;;;;16.60;74.19;97533.41;4946462;29;20043;-71
2023/09/16 07:57:18;;;;;;;0.10;0.10;;;;;;;16.74;73.62;97534.81;4936238;29;20296;-72
2023/09/16 07:59:47;;;;;;;0.13;0.13;;;;;;;16.79;73.02;97537.63;4947184;28;20050;-71
2023/09/16 08:02:15;;;;;;;0.20;0.20;;;;;;;16.87;73.49;97542.66;4947661;29;20511;-70
2023/09/16 08:04:43;;;;;;;0.30;0.30;;;;;;;16.95;72.72;97542.31;4948730;29;20051;-70
2023/09/16 08:07:10;;;;;;;0.30;0.30;;;;;;;17.07;72.10;97543.09;4944329;29;20106;-70
2023/09/16 08:09:38;;;;;;;0.10;0.10;;;;;;;17.14;71.88;97541.09;4955876;28;20126;-70
2023/09/16 08:12:06;;;;;;;0.13;0.13;;;;;;;17.23;71.80;97544.28;4955907;29;20459;-70
2023/09/16 08:14:34;;;;;;;0.20;0.20;;;;;;;17.23;71.92;97545.06;4955996;29;20054;-70
2023/09/16 08:17:03;;;;;;;0.13;0.13;;;;;;;17.31;71.96;97545.78;4953394;28;20466;-70
2023/09/16 08:19:31;;;;;;;0.13;0.13;;;;;;;17.39;71.09;97545.38;4950213;29;20542;-71
2023/09/16 08:21:59;;;;;;;0.10;0.10;;;;;;;17.50;71.02;97536.44;4953328;29;20056;-71
2023/09/16 08:24:27;;;;;;;0.13;0.13;;;;;;;17.56;70.73;97538.97;4956282;28;20039;-70
2023/09/16 08:26:55;;;;;;;0.10;0.10;;;;;;;17.68;70.04;97530.88;4953899;29;20045;-70
2023/09/16 08:29:23;;;;;;;0.20;0.20;;;;;;;17.74;70.20;97532.63;4953909;28;20038;-71
2023/09/16 08:31:50;;;;;;;0.10;0.10;;;;;;;17.78;69.65;97532.94;4952489;29;20372;-70
2023/09/16 08:34:19;;;;;;;0.13;0.13;;;;;;;17.91;70.02;97535.34;4952582;28;20039;-71
2023/09/16 08:36:47;;;;;;;0.20;0.20;;;;;;;18.01;69.90;97534.72;4952079;29;20043;-70
2023/09/16 08:39:15;;;;;;;0.13;0.13;;;;;;;18.20;68.65;97533.41;4951522;29;20039;-70
2023/09/16 08:41:45;;;;;;;0.03;0.03;;;;;;;18.23;68.33;97538.34;4951820;29;20491;-70
2023/09/16 08:44:14;;;;;;;0.10;0.10;;;;;;;18.36;68.22;97535.31;4951797;28;20055;-70
2023/09/16 08:46:47;;;;;;;0.20;0.20;;;;;;;18.43;67.83;97535.97;4955620;29;20143;-71
2023/09/16 08:49:15;;;;;;;0.22;0.22;;;;;;;18.57;67.52;97539.16;4948213;28;20062;-71
2023/09/16 08:51:47;;;;;;;0.10;0.10;;;;;;;18.63;67.50;97538.19;4930652;28;20458;-70
2023/09/16 08:54:16;;;;;;;0.20;0.20;;;;;;;18.66;67.51;97538.53;4946543;29;20554;-71
2023/09/16 08:56:44;;;;;;;0.08;0.08;;;;;;;18.80;66.47;97533.59;4952504;29;20082;-71
2023/09/16 08:59:12;;;;;;;0.17;0.17;;;;;;;18.87;66.40;97538.84;4948134;28;20047;-70
2023/09/16 09:01:41;;;;;;;0.10;0.10;;;;;;;18.91;65.92;97539.94;4946059;28;20476;-70
2023/09/16 09:04:09;;;;;;;0.13;0.13;;;;;;;18.92;66.19;97538.88;4951916;28;20043;-70
2023/09/16 09:06:38;;;;;;;0.10;0.10;;;;;;;19.03;65.11;97543.38;4948931;29;20046;-70
2023/09/16 09:09:09;;;;;;;0.20;0.20;;;;;;;19.13;64.45;97542.69;4955256;28;20043;-71
2023/09/16 09:11:37;;;;;;;0.13;0.13;;;;;;;19.19;64.19;97539.81;4948652;28;20099;-71
2023/09/16 09:14:09;;;;;;;0.13;0.13;;;;;;;19.28;64.01;97537.50;4948670;28;20705;-71
2023/09/16 09:16:37;;;;;;;0.10;0.10;;;;;;;19.29;63.94;97531.00;4948672;29;20388;-71
2023/09/16 09:19:05;;;;;;;0.10;0.10;;;;;;;19.34;64.24;97529.16;4951197;29;20047;-71
2023/09/16 09:21:33;;;;;;;0.10;0.10;;;;;;;19.46;62.05;97531.75;4955315;29;20039;-71
2023/09/16 09:24:01;;;;;;;0.10;0.10;;;;;;;19.59;61.18;97520.56;4951063;29;20109;-71
2023/09/16 09:26:30;;;;;;;0.10;0.10;;;;;;;19.67;60.68;97513.88;4957440;28;20483;-70
2023/09/16 09:28:59;;;;;;;0.08;0.08;;;;;;;19.77;58.53;97516.69;4952511;28;20070;-71
2023/09/16 09:31:27;;;;;;;0.13;0.13;;;;;;;19.87;58.66;97515.97;4954726;29;20039;-71
2023/09/16 09:33:55;;;;;;;0.10;0.10;;;;;;;19.93;58.00;97515.78;4951689;28;20035;-72
2023/09/16 09:36:24;;;;;;;0.10;0.10;;;;;;;20.05;57.82;97524.56;4954582;28;20054;-71
2023/09/16 09:38:52;;;;;;;0.03;0.03;;;;;;;20.16;57.70;97530.88;4952319;28;20045;-71
2023/09/16 09:41:19;;;;;;;0.10;0.10;;;;;;;20.24;57.92;97525.00;4954114;29;20110;-72
2023/09/16 09:43:51;;;;;;;0.13;0.13;;;;;;;20.29;57.77;97529.66;4935959;29;20070;-72
2023/09/16 09:46:19;;;;;;;0.10;0.10;;;;;;;20.35;57.88;97526.75;4954152;29;20055;-72
2023/09/16 09:48:47;;;;;;;0.10;0.10;;;;;;;20.45;56.70;97520.59;4949364;29;20063;-72
2023/09/16 09:51:16;;;;;;;0.03;0.03;;;;;;;20.53;55.76;97520.13;4954174;29;21336;-71
2023/09/16 09:53:46;;;;;;;0.10;0.10;;;;;;;20.61;53.05;97521.53;4948408;28;20067;-70
2023/09/16 09:56:14;;;;;;;0.03;0.03;;;;;;;20.61;54.95;97516.09;4953997;29;20077;-72
2023/09/16 09:58:42;;;;;;;0.10;0.10;;;;;;;20.63;54.32;97509.34;4952631;28;20134;-70
2023/09/16 10:01:11;;;;;;;0.10;0.10;;;;;;;20.74;55.57;97510.22;4954309;29;20504;-70
2023/09/16 10:03:39;;;;;;;0.10;0.10;;;;;;;20.83;55.14;97506.75;4952804;28;20054;-70
2023/09/16 10:06:14;;;;;;;0.13;0.13;;;;;;;20.94;54.73;97507.63;4959988;28;20051;-71
2023/09/16 10:08:42;;;;;;;0.10;0.10;;;;;;;20.99;54.88;97510.38;4958097;28;20047;-70
2023/09/16 10:11:10;;;;;;;0.13;0.13;;;;;;;21.05;54.30;97506.63;4958808;29;20043;-70
2023/09/16 10:13:38;;;;;;;0.10;0.10;;;;;;;21.15;54.19;97511.28;4954994;28;20043;-70
2023/09/16 10:16:06;;;;;;;0.10;0.10;;;;;;;21.27;54.05;97519.22;4952444;29;20450;-70
2023/09/16 10:18:35;;;;;;;0.13;0.13;;;;;;;21.39;52.89;97523.34;4952813;28;20043;-71
2023/09/16 10:21:03;;;;;;;0.05;0.05;;;;;;;21.52;52.28;97519.31;4951583;29;20396;-71
2023/09/16 10:23:32;;;;;;;0.10;0.10;;;;;;;21.60;52.37;97518.78;4952058;28;20130;-71
2023/09/16 10:26:00;;;;;;;0.00;0.00;;;;;;;21.79;51.70;97509.09;4951952;29;20178;-71
2023/09/16 10:28:28;;;;;;;0.10;0.10;;;;;;;21.97;49.92;97505.03;4950379;29;20400;-70
2023/09/16 10:30:56;;;;;;;0.13;0.13;;;;;;;22.18;49.60;97503.19;4952130;29;20098;-71
2023/09/16 10:33:24;;;;;;;0.10;0.10;;;;;;;22.46;48.91;97499.09;4948071;28;20488;-70
2023/09/16 10:35:54;;;;;;;0.03;0.03;;;;;;;22.64;47.76;97503.97;4950713;29;20118;-70
2023/09/16 10:38:23;;;;;;;0.13;0.13;;;;;;;22.81;47.34;97507.25;4949922;28;20125;-72
2023/09/16 10:40:51;;;;;;;0.00;0.00;;;;;;;22.94;46.67;97498.53;4952558;28;20123;-72
2023/09/16 10:43:19;;;;;;;0.10;0.10;;;;;;;23.12;46.75;97504.47;4946438;28;20050;-71
2023/09/16 10:45:47;;;;;;;0.10;0.10;;;;;;;23.43;46.48;97508.69;4948108;29;20499;-70
2023/09/16 10:48:15;;;;;;;0.00;0.00;;;;;;;23.60;45.32;97503.72;4950760;29;20388;-70
2023/09/16 10:50:44;;;;;;;0.00;0.00;;;;;;;23.73;43.69;97500.41;4950347;29;20514;-69
2023/09/16 10:53:16;;;;;;;0.03;0.03;;;;;;;23.94;43.83;97494.81;4944779;28;20047;-70
2023/09/16 10:55:50;;;;;;;0.05;0.05;;;;;;;24.19;43.49;97504.75;4947645;28;20036;-70
2023/09/16 10:58:22;;;;;;;0.03;0.03;;;;;;;24.41;43.33;97513.31;4951523;29;20504;-71
2023/09/16 11:00:54;;;;;;;0.03;0.03;;;;;;;24.48;42.98;97508.34;4950033;28;20043;-70
2023/09/16 11:03:28;;;;;;;0.00;0.00;;;;;;;24.54;41.51;97514.56;4948018;28;20077;-71
2023/09/16 11:05:57;;;;;;;0.03;0.03;;;;;;;24.57;42.03;97509.38;4948630;29;20122;-70
2023/09/16 11:08:26;;;;;;;0.05;0.05;;;;;;;24.52;42.42;97509.41;4948518;28;20055;-70
2023/09/16 11:10:55;;;;;;;0.08;0.08;;;;;;;24.57;42.13;97501.19;4950704;29;20050;-70
2023/09/16 11:13:23;;;;;;;0.00;0.00;;;;;;;24.56;42.20;97501.47;4948024;28;20110;-71
2023/09/16 11:15:51;;;;;;;0.10;0.10;;;;;;;24.91;41.40;97501.13;4952277;28;20039;-70
2023/09/16 11:18:19;;;;;;;0.08;0.08;;;;;;;25.12;40.55;97497.09;4949878;29;20589;-71
2023/09/16 11:20:47;;;;;;;0.00;0.00;;;;;;;25.29;40.57;97504.00;4951216;29;20053;-71
2023/09/16 11:23:15;;;;;;;0.03;0.03;;;;;;;25.56;38.21;97504.19;4945821;28;20047;-72
2023/09/16 11:25:44;;;;;;;0.00;0.00;;;;;;;25.68;38.53;97493.69;4947493;29;20434;-71
2023/09/16 11:28:13;;;;;;;0.10;0.10;;;;;;;25.56;39.18;97490.53;4950472;29;20069;-71
2023/09/16 11:30:46;;;;;;;0.03;0.03;;;;;;;25.64;39.11;97494.59;4950625;29;20507;-71
2023/09/16 11:33:28;;;;;;;0.00;0.00;;;;;;;25.71;39.69;97495.84;4953551;28;20039;-71
2023/09/16 11:36:13;;;;;;;0.03;0.03;;;;;;;25.63;38.22;97487.47;4952123;28;20054;-71
2023/09/16 11:38:53;;;;;;;0.00;0.00;;;;;;;25.68;37.00;97485.47;4950577;28;20043;-71
2023/09/16 11:41:23;;;;;;;0.00;0.00;;;;;;;25.86;35.92;97473.72;4948221;29;20405;-71